createdAt,value
2023-05-17T00:00:39.073Z,59.38
2023-05-17T00:05:41.304Z,59.70
2023-05-17T00:10:43.713Z,59.56
2023-05-17T00:15:45.889Z,59.28
2023-05-17T00:20:48.146Z,59.61
2023-05-17T00:25:50.568Z,59.85
2023-05-17T00:30:52.810Z,59.79
2023-05-17T00:35:55.055Z,59.67
2023-05-17T00:40:57.331Z,60.25
2023-05-17T00:45:59.550Z,60.31
2023-05-17T00:51:01.957Z,60.47
2023-05-17T00:56:04.864Z,60.66
2023-05-17T01:01:07.421Z,60.75
2023-05-17T01:06:09.787Z,60.34
2023-05-17T01:11:35.895Z,60.23
2023-05-17T01:16:44.935Z,60.22
2023-05-17T01:22:18.036Z,60.34
2023-05-17T01:27:22.436Z,61.73
2023-05-17T01:32:26.569Z,61.44
2023-05-17T01:37:28.832Z,61.71
2023-05-17T01:42:33.743Z,62.54
2023-05-17T01:48:07.472Z,62.29
2023-05-17T01:53:17.706Z,63.76
2023-05-17T01:58:23.193Z,62.57
2023-05-17T02:03:28.148Z,63.07
2023-05-17T02:08:30.371Z,65.92
2023-05-17T02:13:32.599Z,65.36
2023-05-17T02:18:36.121Z,63.93
2023-05-17T02:23:38.813Z,62.86
2023-05-17T02:28:41.413Z,61.79
2023-05-17T02:33:43.785Z,61.20
2023-05-17T02:38:46.065Z,60.72
2023-05-17T02:43:48.352Z,60.82
2023-05-17T02:48:50.697Z,60.57
2023-05-17T02:53:52.904Z,60.59
2023-05-17T02:58:57.977Z,60.63
2023-05-17T03:04:00.214Z,61.30
2023-05-17T03:09:02.454Z,61.10
2023-05-17T03:14:04.699Z,60.71
2023-05-17T03:19:07.091Z,60.80
2023-05-17T03:24:09.667Z,60.76
2023-05-17T03:29:12.202Z,60.69
2023-05-17T03:34:14.346Z,60.80
2023-05-17T03:39:16.668Z,61.33
2023-05-17T03:44:18.908Z,61.21
2023-05-17T03:49:21.398Z,60.88
2023-05-17T03:54:23.750Z,60.76
2023-05-17T03:59:26.026Z,60.58
2023-05-17T04:04:28.390Z,60.90
2023-05-17T04:09:32.470Z,60.98
2023-05-17T04:14:34.705Z,61.29
2023-05-17T04:19:36.934Z,61.33
2023-05-17T04:24:39.171Z,61.60
2023-05-17T04:29:41.741Z,62.81
2023-05-17T04:34:44.062Z,67.50
2023-05-17T04:39:46.553Z,69.92
2023-05-17T04:44:49.069Z,70.72
2023-05-17T04:49:52.017Z,70.79
2023-05-17T04:54:54.265Z,70.09
2023-05-17T04:59:56.526Z,72.99
2023-05-17T05:04:59.041Z,74.37
2023-05-17T05:10:01.885Z,75.80
2023-05-17T05:15:04.391Z,74.23
2023-05-17T05:20:07.578Z,72.73
2023-05-17T05:25:10.288Z,71.30
2023-05-17T05:30:13.275Z,70.25
2023-05-17T05:35:15.618Z,68.32
2023-05-17T05:40:17.898Z,68.22
2023-05-17T05:45:20.398Z,67.75
2023-05-17T05:50:22.730Z,68.85
2023-05-17T05:55:25.326Z,67.42
2023-05-17T06:00:27.940Z,67.22
2023-05-17T06:05:30.496Z,65.85
2023-05-17T06:10:33.257Z,65.38
2023-05-17T06:15:35.549Z,64.80
2023-05-17T06:20:37.836Z,64.30
2023-05-17T06:25:40.873Z,63.98
2023-05-17T06:30:43.159Z,63.24
2023-05-17T06:35:55.532Z,62.86
2023-05-17T06:41:01.894Z,63.03
2023-05-17T06:46:04.890Z,62.78
2023-05-17T06:51:08.253Z,62.08
2023-05-17T06:56:10.509Z,61.26
2023-05-17T07:01:14.065Z,60.57
2023-05-17T07:06:16.465Z,60.07
2023-05-17T07:11:18.748Z,59.92
2023-05-17T07:16:21.084Z,60.06
2023-05-17T07:21:26.130Z,59.32
2023-05-17T07:26:28.407Z,59.58
2023-05-17T07:31:30.609Z,58.14
2023-05-17T07:36:33.086Z,57.77
2023-05-17T07:41:35.871Z,57.42
2023-05-17T07:46:38.902Z,55.91
2023-05-17T07:51:41.504Z,53.28
2023-05-17T07:56:43.816Z,50.21
2023-05-17T08:01:46.147Z,46.80
2023-05-17T08:06:48.939Z,43.51
2023-05-17T08:11:51.961Z,43.00
2023-05-17T08:16:54.270Z,42.84
2023-05-17T08:21:56.617Z,42.88
2023-05-17T08:26:59.036Z,42.16
2023-05-17T08:32:01.670Z,41.08
2023-05-17T08:37:04.055Z,40.49
2023-05-17T08:42:09.216Z,40.06
2023-05-17T08:47:13.061Z,38.46
2023-05-17T08:52:16.099Z,37.94
2023-05-17T08:57:18.651Z,36.10
2023-05-17T09:02:22.491Z,35.33
2023-05-17T09:07:25.228Z,35.10
2023-05-17T09:12:27.482Z,34.30
2023-05-17T09:17:29.756Z,33.55
2023-05-17T09:22:32.350Z,33.43
2023-05-17T09:27:34.703Z,32.65
2023-05-17T09:32:43.486Z,32.01
2023-05-17T09:37:47.584Z,32.09
2023-05-17T09:42:50.185Z,32.16
2023-05-17T09:47:53.096Z,31.58
2023-05-17T09:52:55.564Z,32.10
2023-05-17T09:58:04.465Z,31.25
2023-05-17T10:03:07.476Z,31.71
2023-05-17T10:08:11.485Z,30.96
2023-05-17T10:13:16.458Z,31.19
2023-05-17T10:18:19.203Z,30.80
2023-05-17T10:23:22.939Z,30.92
2023-05-17T10:28:27.408Z,30.05
2023-05-17T10:33:32.699Z,29.81
2023-05-17T10:38:41.663Z,29.53
2023-05-17T10:43:46.923Z,27.96
2023-05-17T10:48:53.349Z,28.08
2023-05-17T10:54:18.980Z,27.69
2023-05-17T10:59:29.953Z,27.40
2023-05-17T11:04:43.716Z,27.11
2023-05-17T11:09:49.842Z,26.69
2023-05-17T11:14:56.060Z,26.63
2023-05-17T11:20:07.601Z,26.00
2023-05-17T11:25:14.666Z,25.55
2023-05-17T11:30:22.813Z,25.91
2023-05-17T11:35:29.151Z,25.93
2023-05-17T11:40:32.714Z,24.72
2023-05-17T11:45:53.511Z,24.69
2023-05-17T11:50:58.036Z,24.50
2023-05-17T11:56:07.482Z,25.02
2023-05-17T12:01:09.842Z,24.25
2023-05-17T12:06:17.738Z,23.88
2023-05-17T12:11:22.172Z,24.90
2023-05-17T12:16:25.822Z,25.34
2023-05-17T12:21:28.257Z,24.64
2023-05-17T12:26:31.017Z,23.99
2023-05-17T12:31:39.478Z,24.14
2023-05-17T12:36:42.388Z,25.83
2023-05-17T12:41:45.103Z,29.99
2023-05-17T12:46:54.214Z,30.85
2023-05-17T12:51:56.720Z,31.57
2023-05-17T12:56:59.110Z,31.30
2023-05-17T13:02:02.076Z,32.22
2023-05-17T13:07:05.978Z,31.88
2023-05-17T13:12:08.653Z,31.25
2023-05-17T13:17:25.512Z,30.72
2023-05-17T13:22:28.300Z,29.79
2023-05-17T13:27:30.693Z,29.51
2023-05-17T13:32:33.206Z,28.90
2023-05-17T13:37:36.775Z,28.63
2023-05-17T13:42:39.137Z,28.52
2023-05-17T13:47:41.878Z,28.08
2023-05-17T13:52:44.913Z,28.40
2023-05-17T13:57:47.665Z,27.24
2023-05-17T14:02:50.245Z,26.29
2023-05-17T14:07:53.109Z,26.42
2023-05-17T14:12:55.331Z,26.43
2023-05-17T14:17:57.660Z,25.99
2023-05-17T14:23:00.959Z,26.56
2023-05-17T14:28:03.462Z,24.62
2023-05-17T14:33:05.800Z,23.83
2023-05-17T14:38:08.216Z,24.52
2023-05-17T14:43:10.658Z,24.39
2023-05-17T14:48:13.145Z,23.00
2023-05-17T14:53:15.572Z,22.20
2023-05-17T14:58:17.997Z,22.28
2023-05-17T15:03:22.308Z,21.62
2023-05-17T15:08:25.384Z,21.18
2023-05-17T15:13:27.827Z,21.24
2023-05-17T15:18:30.218Z,21.38
2023-05-17T15:23:32.706Z,20.77
2023-05-17T15:28:35.118Z,20.65
2023-05-17T15:33:39.901Z,20.13
2023-05-17T15:38:42.662Z,19.31
2023-05-17T15:43:45.297Z,18.79
2023-05-17T15:48:47.713Z,19.01
2023-05-17T15:53:50.263Z,18.75
2023-05-17T15:58:53.040Z,18.98
2023-05-17T16:03:55.370Z,19.16
2023-05-17T16:08:57.724Z,19.04
2023-05-17T16:14:00.188Z,19.57
2023-05-17T16:19:04.873Z,19.16
2023-05-17T16:24:07.604Z,19.17
2023-05-17T16:29:09.887Z,21.75
2023-05-17T16:34:12.252Z,24.26
2023-05-17T16:39:14.634Z,27.14
2023-05-17T16:44:17.106Z,27.18
2023-05-17T16:49:19.685Z,25.13
2023-05-17T16:54:22.042Z,27.42
2023-05-17T16:59:24.456Z,29.45
2023-05-17T17:04:27.001Z,30.50
2023-05-17T17:09:29.404Z,30.84
2023-05-17T17:14:32.443Z,32.20
2023-05-17T17:19:34.856Z,33.42
2023-05-17T17:24:37.135Z,34.88
2023-05-17T17:29:39.468Z,34.95
2023-05-17T17:34:41.725Z,35.32
2023-05-17T17:39:44.197Z,35.62
2023-05-17T17:44:46.773Z,36.66
2023-05-17T17:49:49.215Z,37.24
2023-05-17T17:54:51.758Z,37.20
2023-05-17T17:59:55.083Z,38.38
2023-05-17T18:04:57.658Z,38.39
2023-05-17T18:10:02.188Z,37.91
2023-05-17T18:15:06.490Z,38.68
2023-05-17T18:20:09.264Z,40.81
2023-05-17T18:25:11.608Z,39.30
2023-05-17T18:30:14.390Z,41.08
2023-05-17T18:35:17.806Z,41.41
2023-05-17T18:40:20.271Z,40.80
2023-05-17T18:45:22.814Z,40.98
2023-05-17T18:50:25.251Z,41.10
2023-05-17T18:55:27.789Z,40.98
2023-05-17T19:00:30.572Z,40.55
2023-05-17T19:05:33.203Z,41.10
2023-05-17T19:10:35.596Z,40.83
2023-05-17T19:15:38.045Z,40.59
2023-05-17T19:20:40.526Z,41.58
2023-05-17T19:25:42.967Z,41.86
2023-05-17T19:30:45.346Z,41.75
2023-05-17T19:35:47.853Z,41.85
2023-05-17T19:40:50.429Z,41.90
2023-05-17T19:45:52.886Z,41.92
2023-05-17T19:50:56.729Z,41.90
2023-05-17T19:56:06.359Z,41.38
2023-05-17T20:01:08.581Z,41.32
2023-05-17T20:06:14.621Z,41.30
2023-05-17T20:11:17.137Z,41.27
2023-05-17T20:16:19.580Z,41.44
2023-05-17T20:21:23.315Z,41.02
2023-05-17T20:26:27.403Z,40.79
2023-05-17T20:31:29.808Z,40.74
2023-05-17T20:36:32.665Z,40.91
2023-05-17T20:41:35.002Z,40.47
2023-05-17T20:46:37.446Z,40.33
2023-05-17T20:51:40.262Z,40.73
2023-05-17T20:56:42.810Z,41.12
2023-05-17T21:01:45.248Z,41.61
2023-05-17T21:06:47.773Z,41.94
2023-05-17T21:11:52.467Z,42.02
2023-05-17T21:16:56.509Z,41.78
2023-05-17T21:21:58.917Z,41.82
2023-05-17T21:27:03.496Z,41.86
2023-05-17T21:32:06.436Z,41.62
2023-05-17T21:37:08.817Z,41.73
2023-05-17T21:42:11.463Z,41.70
2023-05-17T21:47:13.966Z,42.07
2023-05-17T21:52:16.582Z,42.03
2023-05-17T21:57:21.555Z,41.88
2023-05-17T22:02:24.089Z,41.97
2023-05-17T22:07:26.721Z,41.74
2023-05-17T22:12:29.198Z,42.42
2023-05-17T22:17:46.913Z,42.25
2023-05-17T22:22:50.770Z,42.48
2023-05-17T22:27:53.179Z,42.23
2023-05-17T22:32:57.604Z,42.23
2023-05-17T22:38:00.201Z,43.52
2023-05-17T22:43:02.626Z,43.58
2023-05-17T22:48:06.131Z,43.90
2023-05-17T22:53:08.560Z,43.81
2023-05-17T22:58:11.227Z,43.66
2023-05-17T23:03:14.161Z,43.81
2023-05-17T23:08:16.498Z,44.03
2023-05-17T23:13:19.162Z,44.18
2023-05-17T23:18:21.686Z,45.33
2023-05-17T23:23:24.481Z,45.21
2023-05-17T23:28:27.136Z,45.16
2023-05-17T23:33:32.438Z,45.26
2023-05-17T23:38:34.802Z,45.71
2023-05-17T23:43:37.124Z,45.95
2023-05-17T23:48:39.684Z,48.28
2023-05-17T23:53:42.669Z,51.71
2023-05-17T23:58:45.951Z,51.22
